createdAt,value
2017-11-06T00:00:36.243Z,5.63
2017-11-06T00:03:03.699Z,5.93
2017-11-06T00:05:31.159Z,5.13
2017-11-06T00:07:58.669Z,4.57
2017-11-06T00:10:26.883Z,5.70
2017-11-06T00:12:54.338Z,5.30
2017-11-06T00:15:21.786Z,5.37
2017-11-06T00:17:49.307Z,5.23
2017-11-06T00:20:17.555Z,4.90
2017-11-06T00:22:45.014Z,5.20
2017-11-06T00:25:12.474Z,4.80
2017-11-06T00:27:40.727Z,5.30
2017-11-06T00:30:08.177Z,5.60
2017-11-06T00:32:35.631Z,5.47
2017-11-06T00:35:03.105Z,5.20
2017-11-06T00:37:30.630Z,5.20
2017-11-06T00:39:58.094Z,4.50
2017-11-06T00:42:25.554Z,4.27
2017-11-06T00:44:53.026Z,4.90
2017-11-06T00:47:20.495Z,4.83
2017-11-06T00:49:47.948Z,5.17
2017-11-06T00:52:15.391Z,4.70
2017-11-06T00:54:43.627Z,4.53
2017-11-06T00:57:11.866Z,5.13
2017-11-06T00:59:39.342Z,4.67
2017-11-06T01:02:06.786Z,5.43
2017-11-06T01:04:35.016Z,5.50
2017-11-06T01:07:02.463Z,4.40
2017-11-06T01:09:29.921Z,4.50
2017-11-06T01:11:57.363Z,4.80
2017-11-06T01:14:24.824Z,5.50
2017-11-06T01:16:53.038Z,4.97
2017-11-06T01:19:20.502Z,5.13
2017-11-06T01:21:47.946Z,4.93
2017-11-06T01:24:15.395Z,4.77
2017-11-06T01:26:42.854Z,5.30
2017-11-06T01:29:11.069Z,4.80
2017-11-06T01:31:38.522Z,4.73
2017-11-06T01:34:05.967Z,5.10
2017-11-06T01:36:33.427Z,4.83
2017-11-06T01:39:00.874Z,5.20
2017-11-06T01:41:28.330Z,4.63
2017-11-06T01:43:55.782Z,5.30
2017-11-06T01:46:23.241Z,4.80
2017-11-06T01:48:50.696Z,4.40
2017-11-06T01:51:18.147Z,4.80
2017-11-06T01:53:45.607Z,4.73
2017-11-06T01:56:13.056Z,5.17
2017-11-06T01:58:40.498Z,5.10
2017-11-06T02:01:07.954Z,5.30
2017-11-06T02:03:35.395Z,4.47
2017-11-06T02:06:02.865Z,4.80
2017-11-06T02:08:30.312Z,4.43
2017-11-06T02:10:57.762Z,4.77
2017-11-06T02:13:25.992Z,5.17
2017-11-06T02:15:53.437Z,5.90
2017-11-06T02:18:21.657Z,5.07
2017-11-06T02:20:49.098Z,5.60
2017-11-06T02:23:16.555Z,4.90
2017-11-06T02:25:43.999Z,4.80
2017-11-06T02:28:11.462Z,5.10
2017-11-06T02:30:38.911Z,5.20
2017-11-06T02:33:06.361Z,4.80
2017-11-06T02:35:33.806Z,5.20
2017-11-06T02:38:01.259Z,5.40
2017-11-06T02:40:28.696Z,5.50
2017-11-06T02:42:56.147Z,5.40
2017-11-06T02:45:24.346Z,4.93
2017-11-06T02:47:51.790Z,5.33
2017-11-06T02:50:19.258Z,5.57
2017-11-06T02:52:46.706Z,5.40
2017-11-06T02:55:14.915Z,6.30
2017-11-06T02:57:43.125Z,5.70
2017-11-06T03:00:11.457Z,6.00
2017-11-06T03:02:38.928Z,6.00
2017-11-06T03:05:06.374Z,5.83
2017-11-06T03:07:33.822Z,5.90
2017-11-06T03:10:01.308Z,5.60
2017-11-06T03:12:28.753Z,5.77
2017-11-06T03:14:56.210Z,5.30
2017-11-06T03:17:24.418Z,5.83
2017-11-06T03:19:51.866Z,5.80
2017-11-06T03:22:19.311Z,5.70
2017-11-06T03:24:46.759Z,5.50
2017-11-06T03:27:14.198Z,5.80
2017-11-06T03:29:42.419Z,6.33
2017-11-06T03:32:09.862Z,5.43
2017-11-06T03:34:37.307Z,6.30
2017-11-06T03:37:04.766Z,6.07
2017-11-06T03:39:32.974Z,5.83
2017-11-06T03:42:01.191Z,6.10
2017-11-06T03:44:29.409Z,6.43
2017-11-06T03:46:56.858Z,5.90
2017-11-06T03:49:24.309Z,5.83
2017-11-06T03:51:51.762Z,5.87
2017-11-06T03:54:19.217Z,6.07
2017-11-06T03:56:46.660Z,6.07
2017-11-06T03:59:14.104Z,5.30
2017-11-06T04:01:41.549Z,5.53
2017-11-06T04:04:08.990Z,6.00
2017-11-06T04:06:37.220Z,6.30
2017-11-06T04:09:04.661Z,5.93
2017-11-06T04:11:32.118Z,5.70
2017-11-06T04:13:59.565Z,5.37
2017-11-06T04:16:27.018Z,6.03
2017-11-06T04:18:55.228Z,5.40
2017-11-06T04:21:22.674Z,5.80
2017-11-06T04:23:50.113Z,6.10
2017-11-06T04:26:17.557Z,6.30
2017-11-06T04:28:44.997Z,6.73
2017-11-06T04:31:13.214Z,6.17
2017-11-06T04:33:47.090Z,5.90
2017-11-06T04:36:14.538Z,6.40
2017-11-06T04:38:41.982Z,6.20
2017-11-06T04:41:10.238Z,7.07
2017-11-06T04:43:37.693Z,6.37
2017-11-06T04:46:05.146Z,6.30
2017-11-06T04:48:33.350Z,5.70
2017-11-06T04:51:01.566Z,6.10
2017-11-06T04:53:29.015Z,6.33
2017-11-06T04:55:56.465Z,6.70
2017-11-06T04:58:23.913Z,5.80
2017-11-06T05:00:51.368Z,6.03
2017-11-06T05:03:18.827Z,6.00
2017-11-06T05:05:46.261Z,6.43
2017-11-06T05:08:14.477Z,6.00
2017-11-06T05:10:41.924Z,5.53
2017-11-06T05:13:09.400Z,6.23
2017-11-06T05:15:36.836Z,6.20
2017-11-06T05:18:04.281Z,6.27
2017-11-06T05:20:31.722Z,6.17
2017-11-06T05:22:59.938Z,6.90
2017-11-06T05:25:27.389Z,6.57
2017-11-06T05:27:54.841Z,15.13
2017-11-06T05:30:22.316Z,9.10
2017-11-06T05:32:49.809Z,8.97
2017-11-06T05:35:17.250Z,8.60
2017-11-06T05:37:44.706Z,8.37
2017-11-06T05:40:12.161Z,8.10
2017-11-06T05:42:39.629Z,8.40
2017-11-06T05:45:07.064Z,7.60
2017-11-06T05:47:34.513Z,7.50
2017-11-06T05:50:02.102Z,6.80
2017-11-06T05:52:29.550Z,7.60
2017-11-06T05:54:57.001Z,7.10
2017-11-06T05:57:25.206Z,7.73
2017-11-06T05:59:52.657Z,7.37
2017-11-06T06:02:20.102Z,7.07
2017-11-06T06:04:47.550Z,7.20
2017-11-06T06:07:14.990Z,7.57
2017-11-06T06:09:42.442Z,7.13
2017-11-06T06:12:09.897Z,6.23
2017-11-06T06:14:37.622Z,8.03
2017-11-06T06:17:05.071Z,9.20
2017-11-06T06:19:33.318Z,11.20
2017-11-06T06:22:01.525Z,11.20
2017-11-06T06:24:29.741Z,9.90
2017-11-06T06:26:57.198Z,9.30
2017-11-06T06:29:24.657Z,8.77
2017-11-06T06:31:52.113Z,8.00
2017-11-06T06:34:19.573Z,8.80
2017-11-06T06:36:47.034Z,7.60
2017-11-06T06:39:14.465Z,6.70
2017-11-06T06:41:41.914Z,6.93
2017-11-06T06:44:10.144Z,7.40
2017-11-06T06:46:37.598Z,7.57
2017-11-06T06:49:05.046Z,28.77
2017-11-06T06:51:33.273Z,11.93
2017-11-06T06:54:01.482Z,12.77
2017-11-06T06:56:28.949Z,11.10
2017-11-06T06:58:56.415Z,9.97
2017-11-06T07:01:23.854Z,9.27
2017-11-06T07:03:52.062Z,9.00
2017-11-06T07:06:19.552Z,8.30
2017-11-06T07:08:46.994Z,8.70
2017-11-06T07:11:14.445Z,8.30
2017-11-06T07:13:41.886Z,8.80
2017-11-06T07:16:10.099Z,9.03
2017-11-06T07:18:38.310Z,9.83
2017-11-06T07:21:06.522Z,10.60
2017-11-06T07:23:33.978Z,18.47
2017-11-06T07:26:01.422Z,14.07
2017-11-06T07:28:28.880Z,17.77
2017-11-06T07:30:57.093Z,24.70
2017-11-06T07:33:25.325Z,17.67
2017-11-06T07:35:53.544Z,20.33
2017-11-06T07:38:21.771Z,18.00
2017-11-06T07:40:49.226Z,17.70
2017-11-06T07:43:16.690Z,14.97
2017-11-06T07:45:44.149Z,14.20
2017-11-06T07:48:11.634Z,13.27
2017-11-06T07:50:39.083Z,12.83
2017-11-06T07:53:06.534Z,11.20
2017-11-06T07:55:34.006Z,9.97
2017-11-06T07:58:02.241Z,9.13
2017-11-06T08:00:29.694Z,7.90
2017-11-06T08:02:57.142Z,7.40
2017-11-06T08:05:24.598Z,7.07
2017-11-06T08:07:52.060Z,6.57
2017-11-06T08:10:20.275Z,5.87
2017-11-06T08:12:47.718Z,5.73
2017-11-06T08:15:15.170Z,5.13
2017-11-06T08:17:42.621Z,5.00
2017-11-06T08:20:10.838Z,5.30
2017-11-06T08:22:38.292Z,6.00
2017-11-06T08:25:05.738Z,5.83
2017-11-06T08:27:33.198Z,6.33
2017-11-06T08:30:00.645Z,7.80
2017-11-06T08:32:28.097Z,8.03
2017-11-06T08:34:55.565Z,8.87
2017-11-06T08:37:23.017Z,9.10
2017-11-06T08:39:50.462Z,6.20
2017-11-06T08:42:17.935Z,6.43
2017-11-06T08:44:45.378Z,6.30
2017-11-06T08:47:12.844Z,6.30
2017-11-06T08:49:40.281Z,5.87
2017-11-06T08:52:07.747Z,6.87
2017-11-06T08:54:35.194Z,5.70
2017-11-06T08:57:03.418Z,7.03
2017-11-06T08:59:31.647Z,6.00
2017-11-06T09:01:59.106Z,5.90
2017-11-06T09:04:27.322Z,6.43
2017-11-06T09:06:55.562Z,5.30
2017-11-06T09:09:23.027Z,5.20
2017-11-06T09:11:50.580Z,5.87
2017-11-06T09:14:18.854Z,6.00
2017-11-06T09:16:46.309Z,5.60
2017-11-06T09:19:13.769Z,5.73
2017-11-06T09:21:42.018Z,5.07
2017-11-06T09:24:09.462Z,4.53
2017-11-06T09:26:36.926Z,5.40
2017-11-06T09:29:04.415Z,4.70
2017-11-06T09:31:31.862Z,4.40
2017-11-06T09:34:00.100Z,4.97
2017-11-06T09:36:28.310Z,4.40
2017-11-06T09:38:55.770Z,4.50
2017-11-06T09:41:23.231Z,4.53
2017-11-06T09:43:50.692Z,4.00
2017-11-06T09:46:18.137Z,4.60
2017-11-06T09:48:45.590Z,4.40
2017-11-06T09:51:13.059Z,4.50
2017-11-06T09:53:41.270Z,4.40
2017-11-06T09:56:09.506Z,4.63
2017-11-06T09:58:36.953Z,4.47
2017-11-06T10:01:04.416Z,4.80
2017-11-06T10:03:31.870Z,4.50
2017-11-06T10:05:59.318Z,4.27
2017-11-06T10:08:26.784Z,3.97
2017-11-06T10:10:54.230Z,3.97
2017-11-06T10:13:21.683Z,3.90
2017-11-06T10:15:49.126Z,3.80
2017-11-06T10:18:17.350Z,3.67
2017-11-06T10:20:44.794Z,3.33
2017-11-06T10:23:12.262Z,4.30
2017-11-06T10:25:39.709Z,3.90
2017-11-06T10:28:07.170Z,3.80
2017-11-06T10:30:35.469Z,3.83
2017-11-06T10:33:02.925Z,3.80
2017-11-06T10:35:30.380Z,3.30
2017-11-06T10:37:58.131Z,3.20
2017-11-06T10:40:26.354Z,3.67
2017-11-06T10:42:53.807Z,3.30
2017-11-06T10:45:22.034Z,3.30
2017-11-06T10:47:49.482Z,3.57
2017-11-06T10:50:16.944Z,3.60
2017-11-06T10:52:44.396Z,3.27
2017-11-06T10:55:11.854Z,3.83
2017-11-06T10:57:39.307Z,2.90
2017-11-06T11:00:06.769Z,2.93
2017-11-06T11:02:34.221Z,3.60
2017-11-06T11:05:01.675Z,2.80
2017-11-06T11:07:29.888Z,2.50
2017-11-06T11:09:57.350Z,2.80
2017-11-06T11:12:24.819Z,3.20
2017-11-06T11:14:52.267Z,3.03
2017-11-06T11:17:19.725Z,2.60
2017-11-06T11:19:47.189Z,2.60
2017-11-06T11:22:14.639Z,2.87
2017-11-06T11:24:42.106Z,2.40
2017-11-06T11:27:09.549Z,2.80
2017-11-06T11:29:37.006Z,2.67
2017-11-06T11:32:05.240Z,2.73
2017-11-06T11:34:32.697Z,2.80
2017-11-06T11:37:00.913Z,2.57
2017-11-06T11:39:29.869Z,2.30
2017-11-06T11:41:57.325Z,2.70
2017-11-06T11:44:24.777Z,2.67
2017-11-06T11:46:52.998Z,2.30
2017-11-06T11:49:20.444Z,2.30
2017-11-06T11:51:47.933Z,2.30
2017-11-06T11:54:16.151Z,1.93
2017-11-06T11:56:43.608Z,1.97
2017-11-06T11:59:11.050Z,2.20
2017-11-06T12:01:38.501Z,2.23
2017-11-06T12:04:05.949Z,1.87
2017-11-06T12:06:33.401Z,1.83
2017-11-06T12:09:01.616Z,1.70
2017-11-06T12:11:29.068Z,2.30
2017-11-06T12:13:56.513Z,2.10
2017-11-06T12:16:24.732Z,2.30
2017-11-06T12:18:52.191Z,2.03
2017-11-06T12:21:19.670Z,1.80
2017-11-06T12:23:47.893Z,1.77
2017-11-06T12:26:15.350Z,1.80
2017-11-06T12:28:42.807Z,2.03
2017-11-06T12:31:10.254Z,1.60
2017-11-06T12:33:37.716Z,1.50
2017-11-06T12:36:05.178Z,1.67
2017-11-06T12:38:32.641Z,1.87
2017-11-06T12:41:00.097Z,2.10
2017-11-06T12:43:28.354Z,1.80
2017-11-06T12:45:55.794Z,1.87
2017-11-06T12:48:24.022Z,2.47
2017-11-06T12:50:52.230Z,1.90
2017-11-06T12:53:19.695Z,1.80
2017-11-06T12:55:47.912Z,1.70
2017-11-06T12:58:15.375Z,1.57
2017-11-06T13:00:43.585Z,2.13
2017-11-06T13:03:11.030Z,2.10
2017-11-06T13:05:38.502Z,2.27
2017-11-06T13:08:05.958Z,2.30
2017-11-06T13:10:33.412Z,1.90
2017-11-06T13:13:00.871Z,2.40
2017-11-06T13:15:28.329Z,1.93
2017-11-06T13:17:55.789Z,2.20
2017-11-06T13:20:23.245Z,2.30
2017-11-06T13:22:50.733Z,2.37
2017-11-06T13:25:18.161Z,2.43
2017-11-06T13:27:45.619Z,2.23
2017-11-06T13:30:13.073Z,1.90
2017-11-06T13:32:41.282Z,2.10
2017-11-06T13:35:09.498Z,2.10
2017-11-06T13:37:37.711Z,1.80
2017-11-06T13:40:05.158Z,2.77
2017-11-06T13:42:32.611Z,2.90
2017-11-06T13:45:00.093Z,3.00
2017-11-06T13:47:28.309Z,3.07
2017-11-06T13:49:55.761Z,3.43
2017-11-06T13:52:23.978Z,3.53
2017-11-06T13:54:51.430Z,3.20
2017-11-06T13:57:18.882Z,3.43
2017-11-06T13:59:46.336Z,3.10
2017-11-06T14:02:13.791Z,3.03
2017-11-06T14:04:41.233Z,3.13
2017-11-06T14:07:08.686Z,3.40
2017-11-06T14:09:36.138Z,2.90
2017-11-06T14:12:04.346Z,3.10
2017-11-06T14:14:33.296Z,3.20
2017-11-06T14:17:00.767Z,2.97
2017-11-06T14:19:28.212Z,3.20
2017-11-06T14:21:55.678Z,2.80
2017-11-06T14:24:23.122Z,3.33
2017-11-06T14:26:50.577Z,3.07
2017-11-06T14:29:18.031Z,3.10
2017-11-06T14:31:45.493Z,3.00
2017-11-06T14:34:12.954Z,3.20
2017-11-06T14:36:40.415Z,3.40
2017-11-06T14:39:07.866Z,2.73
2017-11-06T14:41:35.327Z,2.57
2017-11-06T14:44:02.778Z,5.40
2017-11-06T14:46:30.274Z,3.77
2017-11-06T14:48:57.722Z,3.90
2017-11-06T14:51:25.176Z,2.80
2017-11-06T14:53:52.626Z,3.13
2017-11-06T14:56:20.072Z,3.53
2017-11-06T14:58:47.671Z,3.60
2017-11-06T15:01:15.874Z,3.00
2017-11-06T15:03:44.105Z,3.13
2017-11-06T15:06:11.553Z,3.10
2017-11-06T15:08:39.002Z,3.10
2017-11-06T15:11:06.458Z,2.60
2017-11-06T15:13:33.917Z,3.03
2017-11-06T15:16:01.375Z,2.87
2017-11-06T15:18:28.832Z,3.73
2017-11-06T15:20:57.042Z,3.40
2017-11-06T15:23:24.501Z,4.27
2017-11-06T15:25:52.711Z,4.23
2017-11-06T15:28:20.178Z,5.07
2017-11-06T15:30:47.631Z,5.50
2017-11-06T15:33:15.912Z,7.00
2017-11-06T15:35:44.118Z,5.30
2017-11-06T15:38:11.567Z,5.80
2017-11-06T15:40:39.020Z,5.80
2017-11-06T15:43:06.465Z,5.50
2017-11-06T15:45:33.922Z,5.23
2017-11-06T15:48:01.366Z,5.17
2017-11-06T15:50:28.818Z,5.40
2017-11-06T15:52:56.266Z,4.90
2017-11-06T15:55:24.497Z,5.30
2017-11-06T15:57:52.714Z,4.97
2017-11-06T16:00:20.935Z,4.13
2017-11-06T16:02:48.381Z,5.07
2017-11-06T16:05:15.842Z,4.53
2017-11-06T16:07:44.050Z,4.40
2017-11-06T16:10:11.519Z,4.83
2017-11-06T16:12:38.961Z,4.30
2017-11-06T16:15:07.177Z,4.43
2017-11-06T16:17:34.630Z,5.00
2017-11-06T16:20:02.084Z,4.00
2017-11-06T16:22:30.304Z,4.00
2017-11-06T16:24:57.772Z,3.63
2017-11-06T16:27:25.209Z,4.07
2017-11-06T16:29:52.657Z,3.83
2017-11-06T16:32:20.114Z,3.90
2017-11-06T16:34:47.558Z,4.03
2017-11-06T16:37:15.021Z,4.20
2017-11-06T16:39:42.469Z,3.90
2017-11-06T16:42:10.711Z,3.97
2017-11-06T16:44:39.656Z,3.63
2017-11-06T16:47:07.111Z,3.47
2017-11-06T16:49:34.565Z,3.30
2017-11-06T16:52:02.017Z,3.47
2017-11-06T16:54:30.227Z,3.57
2017-11-06T16:56:57.682Z,3.67
2017-11-06T16:59:25.906Z,3.33
2017-11-06T17:01:54.130Z,2.63
2017-11-06T17:04:21.589Z,3.33
2017-11-06T17:06:49.022Z,3.40
2017-11-06T17:09:16.476Z,2.87
2017-11-06T17:11:43.934Z,3.03
2017-11-06T17:14:11.385Z,3.20
2017-11-06T17:16:39.608Z,3.40
2017-11-06T17:19:07.106Z,3.23
2017-11-06T17:21:35.353Z,2.67
2017-11-06T17:24:02.810Z,3.17
2017-11-06T17:26:30.265Z,2.97
2017-11-06T17:28:57.719Z,2.70
2017-11-06T17:31:25.931Z,2.60
2017-11-06T17:33:53.382Z,2.47
2017-11-06T17:36:21.589Z,3.30
2017-11-06T17:38:49.824Z,4.50
2017-11-06T17:41:18.034Z,5.90
2017-11-06T17:43:45.489Z,7.70
2017-11-06T17:46:12.946Z,11.30
2017-11-06T17:48:40.406Z,14.90
2017-11-06T17:51:07.866Z,17.50
2017-11-06T17:53:35.335Z,19.30
2017-11-06T17:56:02.795Z,21.17
2017-11-06T17:58:30.267Z,23.17
2017-11-06T18:00:57.735Z,23.53
2017-11-06T18:03:25.198Z,25.07
2017-11-06T18:05:53.419Z,24.80
2017-11-06T18:08:20.896Z,23.77
2017-11-06T18:10:48.345Z,24.80
2017-11-06T18:13:15.806Z,23.93
2017-11-06T18:15:43.255Z,23.90
2017-11-06T18:18:11.477Z,24.10
2017-11-06T18:20:38.941Z,23.37
2017-11-06T18:23:06.422Z,24.17
2017-11-06T18:25:33.907Z,23.50
2017-11-06T18:28:01.358Z,21.43
2017-11-06T18:30:28.819Z,21.53
2017-11-06T18:32:56.282Z,20.23
2017-11-06T18:35:23.741Z,21.90
2017-11-06T18:37:51.199Z,19.70
2017-11-06T18:40:18.663Z,20.50
2017-11-06T18:42:46.113Z,19.50
2017-11-06T18:45:13.583Z,19.53
2017-11-06T18:47:41.041Z,17.63
2017-11-06T18:50:08.499Z,18.03
2017-11-06T18:52:35.949Z,17.80
2017-11-06T18:55:03.414Z,16.13
2017-11-06T18:57:30.870Z,17.30
2017-11-06T18:59:58.330Z,16.40
2017-11-06T19:02:26.554Z,17.50
2017-11-06T19:04:54.037Z,15.67
2017-11-06T19:07:21.547Z,15.20
2017-11-06T19:09:49.008Z,15.57
2017-11-06T19:12:16.462Z,14.93
2017-11-06T19:14:43.915Z,14.00
2017-11-06T19:17:11.431Z,14.20
2017-11-06T19:19:38.895Z,13.70
2017-11-06T19:22:06.377Z,14.13
2017-11-06T19:24:33.842Z,14.30
2017-11-06T19:27:01.306Z,13.90
2017-11-06T19:29:28.770Z,12.40
2017-11-06T19:31:57.071Z,12.80
2017-11-06T19:34:25.282Z,12.93
2017-11-06T19:36:52.739Z,12.40
2017-11-06T19:39:20.191Z,12.07
2017-11-06T19:41:47.657Z,12.07
2017-11-06T19:44:15.134Z,11.73
2017-11-06T19:46:42.590Z,12.07
2017-11-06T19:49:10.052Z,10.70
2017-11-06T19:51:37.513Z,11.47
2017-11-06T19:54:04.977Z,12.93
2017-11-06T19:56:32.435Z,15.83
2017-11-06T19:58:59.895Z,18.93
2017-11-06T20:01:28.118Z,21.50
2017-11-06T20:03:55.594Z,25.17
2017-11-06T20:06:23.813Z,25.57
2017-11-06T20:08:52.048Z,28.17
2017-11-06T20:11:19.518Z,29.57
2017-11-06T20:13:47.734Z,29.37
2017-11-06T20:16:15.239Z,31.03
2017-11-06T20:18:42.698Z,30.00
2017-11-06T20:21:10.142Z,30.40
2017-11-06T20:23:37.609Z,29.27
2017-11-06T20:26:05.066Z,29.03
2017-11-06T20:28:32.566Z,31.13
2017-11-06T20:31:00.782Z,28.00
2017-11-06T20:33:29.003Z,28.00
2017-11-06T20:35:56.448Z,27.77
2017-11-06T20:38:23.915Z,28.50
2017-11-06T20:40:51.363Z,27.53
2017-11-06T20:43:18.833Z,26.07
2017-11-06T20:45:46.313Z,26.10
2017-11-06T20:48:14.535Z,25.87
2017-11-06T20:50:41.998Z,25.77
2017-11-06T20:53:09.458Z,23.50
2017-11-06T20:55:36.934Z,23.70
2017-11-06T20:58:04.395Z,23.53
2017-11-06T21:00:31.852Z,24.70
2017-11-06T21:05:33.242Z,22.47
2017-11-06T21:08:00.702Z,22.07
2017-11-06T21:10:28.157Z,22.27
2017-11-06T21:12:55.614Z,20.70
2017-11-06T21:15:23.079Z,21.43
2017-11-06T21:17:50.545Z,20.97
2017-11-06T21:20:18.777Z,21.00
2017-11-06T21:22:46.236Z,20.40
2017-11-06T21:25:14.462Z,20.37
2017-11-06T21:27:41.917Z,20.70
2017-11-06T21:30:15.087Z,19.03
2017-11-06T21:32:43.305Z,19.23
2017-11-06T21:35:10.875Z,18.80
2017-11-06T21:37:39.189Z,19.53
2017-11-06T21:40:06.648Z,16.97
2017-11-06T21:42:34.102Z,18.47
2017-11-06T21:45:01.554Z,17.00
2017-11-06T21:47:29.001Z,18.17
2017-11-06T21:49:56.476Z,18.20
2017-11-06T21:52:24.706Z,16.60
2017-11-06T21:54:52.167Z,16.20
2017-11-06T21:57:19.623Z,15.43
2017-11-06T21:59:47.099Z,15.60
2017-11-06T22:02:15.326Z,16.50
2017-11-06T22:04:42.774Z,16.67
2017-11-06T22:07:11.001Z,15.50
2017-11-06T22:09:38.452Z,15.10
2017-11-06T22:12:05.910Z,15.30
2017-11-06T22:14:33.375Z,14.70
2017-11-06T22:17:00.842Z,15.67
2017-11-06T22:19:28.293Z,13.50
2017-11-06T22:21:55.760Z,15.43
2017-11-06T22:24:23.214Z,15.83
2017-11-06T22:26:51.451Z,14.67
2017-11-06T22:29:18.902Z,13.73
2017-11-06T22:31:47.129Z,14.40
2017-11-06T22:34:14.579Z,14.37
2017-11-06T22:36:42.831Z,14.00
2017-11-06T22:39:11.047Z,13.60
2017-11-06T22:41:39.270Z,13.93
2017-11-06T22:44:06.726Z,13.23
2017-11-06T22:46:34.181Z,14.50
2017-11-06T22:49:01.650Z,13.70
2017-11-06T22:51:29.109Z,14.93
2017-11-06T22:53:56.566Z,13.00
2017-11-06T22:56:24.022Z,12.97
2017-11-06T22:58:51.498Z,12.90
2017-11-06T23:01:18.954Z,12.63
2017-11-06T23:03:46.410Z,13.20
2017-11-06T23:06:14.650Z,13.03
2017-11-06T23:08:42.875Z,12.30
2017-11-06T23:11:10.325Z,13.67
2017-11-06T23:13:38.557Z,12.20
2017-11-06T23:16:06.015Z,12.87
2017-11-06T23:18:33.481Z,12.47
2017-11-06T23:21:00.934Z,12.60
2017-11-06T23:23:28.390Z,11.93
2017-11-06T23:25:55.842Z,12.03
2017-11-06T23:28:23.323Z,11.93
2017-11-06T23:30:50.773Z,12.53
2017-11-06T23:33:18.230Z,12.50
2017-11-06T23:35:45.693Z,12.37
2017-11-06T23:38:13.157Z,12.30
2017-11-06T23:40:40.624Z,13.30
2017-11-06T23:43:08.078Z,12.37
2017-11-06T23:45:35.533Z,12.57
2017-11-06T23:48:03.065Z,12.27
2017-11-06T23:50:30.554Z,12.13
2017-11-06T23:52:58.772Z,11.33
2017-11-06T23:55:26.241Z,12.03
2017-11-06T23:57:53.710Z,12.37
